sensor_id;sensor_type;location;lat;lon;timestamp;P1;durP1;ratioP1;P2;durP2;ratioP2
18286;SDS011;9269;50.838;12.094;2023-02-01T00:00:06;6.40;;;3.30;;
18286;SDS011;9269;50.838;12.094;2023-02-01T00:02:36;4.67;;;2.63;;
18286;SDS011;9269;50.838;12.094;2023-02-01T00:05:08;6.30;;;3.00;;
18286;SDS011;9269;50.838;12.094;2023-02-01T00:07:37;5.27;;;3.20;;
18286;SDS011;9269;50.838;12.094;2023-02-01T00:10:06;7.60;;;3.70;;
18286;SDS011;9269;50.838;12.094;2023-02-01T00:12:36;4.57;;;2.80;;
18286;SDS011;9269;50.838;12.094;2023-02-01T00:15:04;6.20;;;3.40;;
18286;SDS011;9269;50.838;12.094;2023-02-01T00:17:34;4.60;;;2.90;;
18286;SDS011;9269;50.838;12.094;2023-02-01T00:20:05;6.27;;;3.13;;
18286;SDS011;9269;50.838;12.094;2023-02-01T00:22:35;6.93;;;3.47;;
18286;SDS011;9269;50.838;12.094;2023-02-01T00:25:03;4.93;;;3.20;;
18286;SDS011;9269;50.838;12.094;2023-02-01T00:27:33;5.67;;;3.27;;
18286;SDS011;9269;50.838;12.094;2023-02-01T00:30:02;6.10;;;3.40;;
18286;SDS011;9269;50.838;12.094;2023-02-01T00:32:31;9.13;;;3.50;;
18286;SDS011;9269;50.838;12.094;2023-02-01T00:35:00;5.83;;;3.67;;
18286;SDS011;9269;50.838;12.094;2023-02-01T00:37:30;6.47;;;3.13;;
18286;SDS011;9269;50.838;12.094;2023-02-01T00:39:58;4.53;;;3.00;;
18286;SDS011;9269;50.838;12.094;2023-02-01T00:42:26;6.17;;;3.03;;
18286;SDS011;9269;50.838;12.094;2023-02-01T00:44:56;7.70;;;2.77;;
18286;SDS011;9269;50.838;12.094;2023-02-01T00:47:24;5.43;;;2.70;;
18286;SDS011;9269;50.838;12.094;2023-02-01T00:49:53;6.40;;;2.80;;
18286;SDS011;9269;50.838;12.094;2023-02-01T00:52:21;6.07;;;2.60;;
18286;SDS011;9269;50.838;12.094;2023-02-01T00:54:51;5.63;;;3.30;;
18286;SDS011;9269;50.838;12.094;2023-02-01T00:57:20;3.23;;;2.07;;
18286;SDS011;9269;50.838;12.094;2023-02-01T00:59:48;3.77;;;2.07;;
18286;SDS011;9269;50.838;12.094;2023-02-01T01:02:17;3.77;;;2.73;;
18286;SDS011;9269;50.838;12.094;2023-02-01T01:04:45;10.60;;;3.63;;
18286;SDS011;9269;50.838;12.094;2023-02-01T01:07:14;5.27;;;3.03;;
18286;SDS011;9269;50.838;12.094;2023-02-01T01:09:42;7.73;;;2.90;;
18286;SDS011;9269;50.838;12.094;2023-02-01T01:12:12;7.30;;;3.63;;
18286;SDS011;9269;50.838;12.094;2023-02-01T01:14:40;5.17;;;3.00;;
18286;SDS011;9269;50.838;12.094;2023-02-01T01:17:09;4.80;;;2.93;;
18286;SDS011;9269;50.838;12.094;2023-02-01T01:19:37;6.50;;;2.97;;
18286;SDS011;9269;50.838;12.094;2023-02-01T01:22:05;8.80;;;2.93;;
18286;SDS011;9269;50.838;12.094;2023-02-01T01:24:34;5.70;;;3.23;;
18286;SDS011;9269;50.838;12.094;2023-02-01T01:27:03;4.23;;;3.07;;
18286;SDS011;9269;50.838;12.094;2023-02-01T01:29:32;7.27;;;3.13;;
18286;SDS011;9269;50.838;12.094;2023-02-01T01:32:01;10.37;;;3.30;;
18286;SDS011;9269;50.838;12.094;2023-02-01T01:34:29;5.60;;;2.97;;
18286;SDS011;9269;50.838;12.094;2023-02-01T01:36:58;5.77;;;2.67;;
18286;SDS011;9269;50.838;12.094;2023-02-01T01:39:26;6.17;;;3.07;;
18286;SDS011;9269;50.838;12.094;2023-02-01T01:41:55;6.90;;;3.10;;
18286;SDS011;9269;50.838;12.094;2023-02-01T01:47:26;5.47;;;2.30;;
18286;SDS011;9269;50.838;12.094;2023-02-01T01:49:59;8.10;;;2.80;;
18286;SDS011;9269;50.838;12.094;2023-02-01T01:52:29;8.47;;;3.10;;
18286;SDS011;9269;50.838;12.094;2023-02-01T01:54:58;5.10;;;2.77;;
18286;SDS011;9269;50.838;12.094;2023-02-01T01:57:28;5.40;;;2.60;;
18286;SDS011;9269;50.838;12.094;2023-02-01T02:00:05;7.57;;;3.13;;
18286;SDS011;9269;50.838;12.094;2023-02-01T02:02:37;6.60;;;2.77;;
18286;SDS011;9269;50.838;12.094;2023-02-01T02:05:08;5.93;;;2.90;;
18286;SDS011;9269;50.838;12.094;2023-02-01T02:07:37;7.37;;;2.77;;
18286;SDS011;9269;50.838;12.094;2023-02-01T02:10:09;6.83;;;3.20;;
18286;SDS011;9269;50.838;12.094;2023-02-01T02:12:39;6.60;;;2.60;;
18286;SDS011;9269;50.838;12.094;2023-02-01T02:15:11;5.30;;;2.33;;
18286;SDS011;9269;50.838;12.094;2023-02-01T02:17:43;5.73;;;2.60;;
18286;SDS011;9269;50.838;12.094;2023-02-01T02:20:30;5.43;;;3.00;;
18286;SDS011;9269;50.838;12.094;2023-02-01T02:26:32;5.33;;;3.13;;
18286;SDS011;9269;50.838;12.094;2023-02-01T02:32:29;7.60;;;3.20;;
18286;SDS011;9269;50.838;12.094;2023-02-01T02:35:21;5.27;;;2.80;;
18286;SDS011;9269;50.838;12.094;2023-02-01T02:38:01;5.57;;;2.87;;
18286;SDS011;9269;50.838;12.094;2023-02-01T02:40:36;6.87;;;2.60;;
18286;SDS011;9269;50.838;12.094;2023-02-01T02:43:16;8.47;;;2.93;;
18286;SDS011;9269;50.838;12.094;2023-02-01T02:46:16;6.97;;;2.57;;
18286;SDS011;9269;50.838;12.094;2023-02-01T02:49:09;6.67;;;3.00;;
18286;SDS011;9269;50.838;12.094;2023-02-01T02:51:45;5.87;;;2.87;;
18286;SDS011;9269;50.838;12.094;2023-02-01T02:54:35;6.63;;;2.90;;
18286;SDS011;9269;50.838;12.094;2023-02-01T02:57:20;7.97;;;2.50;;
18286;SDS011;9269;50.838;12.094;2023-02-01T03:00:09;7.77;;;2.83;;
18286;SDS011;9269;50.838;12.094;2023-02-01T03:02:57;9.30;;;3.00;;
18286;SDS011;9269;50.838;12.094;2023-02-01T03:05:45;6.83;;;2.97;;
18286;SDS011;9269;50.838;12.094;2023-02-01T03:08:18;10.10;;;3.70;;
18286;SDS011;9269;50.838;12.094;2023-02-01T03:10:51;9.00;;;3.20;;
18286;SDS011;9269;50.838;12.094;2023-02-01T03:13:25;7.80;;;3.20;;
18286;SDS011;9269;50.838;12.094;2023-02-01T03:16:04;7.53;;;2.80;;
18286;SDS011;9269;50.838;12.094;2023-02-01T03:18:42;7.00;;;2.90;;
18286;SDS011;9269;50.838;12.094;2023-02-01T03:21:17;7.57;;;2.83;;
18286;SDS011;9269;50.838;12.094;2023-02-01T03:23:52;8.10;;;2.80;;
18286;SDS011;9269;50.838;12.094;2023-02-01T03:26:22;5.87;;;2.80;;
18286;SDS011;9269;50.838;12.094;2023-02-01T03:28:54;8.37;;;2.80;;
18286;SDS011;9269;50.838;12.094;2023-02-01T03:31:25;6.93;;;2.60;;
18286;SDS011;9269;50.838;12.094;2023-02-01T03:33:56;9.50;;;3.37;;
18286;SDS011;9269;50.838;12.094;2023-02-01T03:36:26;7.50;;;3.10;;
18286;SDS011;9269;50.838;12.094;2023-02-01T03:39:02;4.97;;;2.53;;
18286;SDS011;9269;50.838;12.094;2023-02-01T03:41:35;10.07;;;3.67;;
18286;SDS011;9269;50.838;12.094;2023-02-01T03:44:11;7.33;;;3.03;;
18286;SDS011;9269;50.838;12.094;2023-02-01T03:46:45;9.00;;;3.40;;
18286;SDS011;9269;50.838;12.094;2023-02-01T03:49:18;9.60;;;3.30;;
18286;SDS011;9269;50.838;12.094;2023-02-01T03:51:51;9.37;;;3.27;;
18286;SDS011;9269;50.838;12.094;2023-02-01T03:54:23;7.70;;;3.07;;
18286;SDS011;9269;50.838;12.094;2023-02-01T03:56:54;9.30;;;2.80;;
18286;SDS011;9269;50.838;12.094;2023-02-01T03:59:25;5.77;;;3.10;;
18286;SDS011;9269;50.838;12.094;2023-02-01T04:01:54;9.03;;;3.20;;
18286;SDS011;9269;50.838;12.094;2023-02-01T04:04:24;9.20;;;3.23;;
18286;SDS011;9269;50.838;12.094;2023-02-01T04:06:52;6.00;;;2.87;;
18286;SDS011;9269;50.838;12.094;2023-02-01T04:09:20;11.70;;;3.23;;
18286;SDS011;9269;50.838;12.094;2023-02-01T04:11:50;4.90;;;1.90;;
18286;SDS011;9269;50.838;12.094;2023-02-01T04:14:19;9.40;;;3.00;;
18286;SDS011;9269;50.838;12.094;2023-02-01T04:16:48;14.67;;;3.77;;
18286;SDS011;9269;50.838;12.094;2023-02-01T04:19:16;9.13;;;4.07;;
18286;SDS011;9269;50.838;12.094;2023-02-01T04:21:45;7.27;;;2.70;;
18286;SDS011;9269;50.838;12.094;2023-02-01T04:24:15;8.87;;;3.00;;
18286;SDS011;9269;50.838;12.094;2023-02-01T04:26:48;7.23;;;2.87;;
18286;SDS011;9269;50.838;12.094;2023-02-01T04:29:18;8.43;;;3.33;;
18286;SDS011;9269;50.838;12.094;2023-02-01T04:31:48;8.27;;;2.37;;
18286;SDS011;9269;50.838;12.094;2023-02-01T04:34:17;4.93;;;3.00;;
18286;SDS011;9269;50.838;12.094;2023-02-01T04:36:46;7.67;;;3.00;;
18286;SDS011;9269;50.838;12.094;2023-02-01T04:39:15;5.87;;;2.57;;
18286;SDS011;9269;50.838;12.094;2023-02-01T04:41:44;7.63;;;3.17;;
18286;SDS011;9269;50.838;12.094;2023-02-01T04:44:16;7.73;;;2.50;;
18286;SDS011;9269;50.838;12.094;2023-02-01T04:46:47;7.90;;;2.73;;
18286;SDS011;9269;50.838;12.094;2023-02-01T04:49:18;6.60;;;2.47;;
18286;SDS011;9269;50.838;12.094;2023-02-01T04:51:48;7.03;;;2.50;;
18286;SDS011;9269;50.838;12.094;2023-02-01T04:54:17;6.60;;;2.33;;
18286;SDS011;9269;50.838;12.094;2023-02-01T04:56:45;4.73;;;2.10;;
18286;SDS011;9269;50.838;12.094;2023-02-01T04:59:15;4.10;;;2.40;;
18286;SDS011;9269;50.838;12.094;2023-02-01T05:01:44;6.23;;;2.73;;
18286;SDS011;9269;50.838;12.094;2023-02-01T05:04:14;5.43;;;2.33;;
18286;SDS011;9269;50.838;12.094;2023-02-01T05:06:45;4.07;;;2.40;;
18286;SDS011;9269;50.838;12.094;2023-02-01T05:09:14;3.83;;;2.10;;
18286;SDS011;9269;50.838;12.094;2023-02-01T05:11:43;8.03;;;2.50;;
18286;SDS011;9269;50.838;12.094;2023-02-01T05:14:31;3.83;;;2.50;;
18286;SDS011;9269;50.838;12.094;2023-02-01T05:17:00;6.43;;;2.60;;
18286;SDS011;9269;50.838;12.094;2023-02-01T05:19:31;6.17;;;2.23;;
18286;SDS011;9269;50.838;12.094;2023-02-01T05:22:00;5.13;;;2.50;;
18286;SDS011;9269;50.838;12.094;2023-02-01T05:24:32;7.43;;;2.83;;
18286;SDS011;9269;50.838;12.094;2023-02-01T05:27:01;5.37;;;3.13;;
18286;SDS011;9269;50.838;12.094;2023-02-01T05:29:33;4.73;;;2.73;;
18286;SDS011;9269;50.838;12.094;2023-02-01T05:32:01;4.03;;;2.50;;
18286;SDS011;9269;50.838;12.094;2023-02-01T05:34:47;6.00;;;2.70;;
18286;SDS011;9269;50.838;12.094;2023-02-01T05:37:16;6.20;;;2.53;;
18286;SDS011;9269;50.838;12.094;2023-02-01T05:39:45;6.10;;;2.87;;
18286;SDS011;9269;50.838;12.094;2023-02-01T05:42:14;10.40;;;5.30;;
18286;SDS011;9269;50.838;12.094;2023-02-01T05:44:44;16.40;;;9.27;;
18286;SDS011;9269;50.838;12.094;2023-02-01T05:47:14;27.27;;;15.97;;
18286;SDS011;9269;50.838;12.094;2023-02-01T05:49:44;24.60;;;15.57;;
18286;SDS011;9269;50.838;12.094;2023-02-01T05:52:12;17.27;;;10.80;;
18286;SDS011;9269;50.838;12.094;2023-02-01T05:54:46;13.90;;;9.70;;
18286;SDS011;9269;50.838;12.094;2023-02-01T05:57:15;11.07;;;7.33;;
18286;SDS011;9269;50.838;12.094;2023-02-01T05:59:45;10.77;;;7.10;;
18286;SDS011;9269;50.838;12.094;2023-02-01T06:02:15;8.17;;;5.10;;
18286;SDS011;9269;50.838;12.094;2023-02-01T06:04:48;7.03;;;3.93;;
18286;SDS011;9269;50.838;12.094;2023-02-01T06:07:20;11.27;;;6.13;;
18286;SDS011;9269;50.838;12.094;2023-02-01T06:09:50;6.90;;;4.30;;
18286;SDS011;9269;50.838;12.094;2023-02-01T06:12:20;9.97;;;4.63;;
18286;SDS011;9269;50.838;12.094;2023-02-01T06:14:50;8.40;;;3.33;;
18286;SDS011;9269;50.838;12.094;2023-02-01T06:17:19;7.53;;;3.43;;
18286;SDS011;9269;50.838;12.094;2023-02-01T06:19:48;6.73;;;2.60;;
18286;SDS011;9269;50.838;12.094;2023-02-01T06:22:17;7.93;;;3.53;;
18286;SDS011;9269;50.838;12.094;2023-02-01T06:24:46;6.80;;;3.23;;
18286;SDS011;9269;50.838;12.094;2023-02-01T06:27:17;9.17;;;2.90;;
18286;SDS011;9269;50.838;12.094;2023-02-01T06:29:47;7.47;;;3.33;;
18286;SDS011;9269;50.838;12.094;2023-02-01T06:32:17;8.53;;;3.27;;
18286;SDS011;9269;50.838;12.094;2023-02-01T06:34:46;7.87;;;3.57;;
18286;SDS011;9269;50.838;12.094;2023-02-01T06:37:15;11.20;;;4.27;;
18286;SDS011;9269;50.838;12.094;2023-02-01T06:39:44;7.63;;;3.47;;
18286;SDS011;9269;50.838;12.094;2023-02-01T06:42:14;5.97;;;2.77;;
18286;SDS011;9269;50.838;12.094;2023-02-01T06:44:42;10.57;;;3.50;;
18286;SDS011;9269;50.838;12.094;2023-02-01T06:47:29;10.10;;;3.43;;
18286;SDS011;9269;50.838;12.094;2023-02-01T06:50:00;14.40;;;7.67;;
18286;SDS011;9269;50.838;12.094;2023-02-01T06:52:29;13.10;;;6.80;;
18286;SDS011;9269;50.838;12.094;2023-02-01T06:54:57;11.63;;;6.53;;
18286;SDS011;9269;50.838;12.094;2023-02-01T06:57:26;8.13;;;4.40;;
18286;SDS011;9269;50.838;12.094;2023-02-01T06:59:58;12.13;;;5.70;;
18286;SDS011;9269;50.838;12.094;2023-02-01T07:02:29;12.43;;;5.07;;
18286;SDS011;9269;50.838;12.094;2023-02-01T07:04:57;8.20;;;4.50;;
18286;SDS011;9269;50.838;12.094;2023-02-01T07:07:27;11.50;;;5.60;;
18286;SDS011;9269;50.838;12.094;2023-02-01T07:09:56;8.40;;;3.80;;
18286;SDS011;9269;50.838;12.094;2023-02-01T07:12:24;11.07;;;4.00;;
18286;SDS011;9269;50.838;12.094;2023-02-01T07:15:02;7.23;;;3.57;;
18286;SDS011;9269;50.838;12.094;2023-02-01T07:17:34;11.77;;;4.03;;
18286;SDS011;9269;50.838;12.094;2023-02-01T07:20:03;10.70;;;4.17;;
18286;SDS011;9269;50.838;12.094;2023-02-01T07:22:34;7.40;;;3.70;;
18286;SDS011;9269;50.838;12.094;2023-02-01T07:25:06;7.87;;;3.33;;
18286;SDS011;9269;50.838;12.094;2023-02-01T07:27:36;7.30;;;3.57;;
18286;SDS011;9269;50.838;12.094;2023-02-01T07:30:07;6.90;;;3.63;;
18286;SDS011;9269;50.838;12.094;2023-02-01T07:32:40;6.27;;;3.77;;
18286;SDS011;9269;50.838;12.094;2023-02-01T07:35:17;7.70;;;2.70;;
18286;SDS011;9269;50.838;12.094;2023-02-01T07:37:56;8.80;;;4.40;;
18286;SDS011;9269;50.838;12.094;2023-02-01T07:40:30;8.33;;;3.50;;
18286;SDS011;9269;50.838;12.094;2023-02-01T07:43:00;9.13;;;4.10;;
18286;SDS011;9269;50.838;12.094;2023-02-01T07:45:29;8.60;;;4.43;;
18286;SDS011;9269;50.838;12.094;2023-02-01T07:47:59;9.07;;;3.50;;
18286;SDS011;9269;50.838;12.094;2023-02-01T07:50:27;6.27;;;2.73;;
18286;SDS011;9269;50.838;12.094;2023-02-01T07:52:57;12.73;;;4.50;;
18286;SDS011;9269;50.838;12.094;2023-02-01T07:55:27;11.13;;;3.93;;
18286;SDS011;9269;50.838;12.094;2023-02-01T07:57:58;9.07;;;4.20;;
18286;SDS011;9269;50.838;12.094;2023-02-01T08:00:27;9.97;;;3.93;;
18286;SDS011;9269;50.838;12.094;2023-02-01T08:03:14;8.33;;;3.10;;
18286;SDS011;9269;50.838;12.094;2023-02-01T08:05:43;6.73;;;2.87;;
18286;SDS011;9269;50.838;12.094;2023-02-01T08:08:12;10.50;;;3.47;;
18286;SDS011;9269;50.838;12.094;2023-02-01T08:10:40;8.60;;;3.27;;
18286;SDS011;9269;50.838;12.094;2023-02-01T08:13:08;7.40;;;4.13;;
18286;SDS011;9269;50.838;12.094;2023-02-01T08:15:38;12.90;;;4.27;;
18286;SDS011;9269;50.838;12.094;2023-02-01T08:18:07;7.53;;;3.20;;
18286;SDS011;9269;50.838;12.094;2023-02-01T08:20:38;14.17;;;4.73;;
18286;SDS011;9269;50.838;12.094;2023-02-01T08:23:08;10.10;;;4.57;;
18286;SDS011;9269;50.838;12.094;2023-02-01T08:25:36;10.83;;;3.43;;
18286;SDS011;9269;50.838;12.094;2023-02-01T08:28:05;6.53;;;3.13;;
18286;SDS011;9269;50.838;12.094;2023-02-01T08:30:34;5.40;;;2.60;;
18286;SDS011;9269;50.838;12.094;2023-02-01T08:33:04;9.70;;;3.63;;
18286;SDS011;9269;50.838;12.094;2023-02-01T08:35:34;6.93;;;2.53;;
18286;SDS011;9269;50.838;12.094;2023-02-01T08:38:10;8.63;;;3.77;;
18286;SDS011;9269;50.838;12.094;2023-02-01T08:40:39;6.43;;;3.30;;
18286;SDS011;9269;50.838;12.094;2023-02-01T08:43:08;6.57;;;2.73;;
18286;SDS011;9269;50.838;12.094;2023-02-01T08:45:39;4.40;;;2.13;;
18286;SDS011;9269;50.838;12.094;2023-02-01T08:48:07;4.63;;;2.07;;
18286;SDS011;9269;50.838;12.094;2023-02-01T08:50:36;5.67;;;2.70;;
18286;SDS011;9269;50.838;12.094;2023-02-01T08:53:04;6.17;;;2.50;;
18286;SDS011;9269;50.838;12.094;2023-02-01T08:55:34;4.40;;;2.60;;
18286;SDS011;9269;50.838;12.094;2023-02-01T08:58:03;5.80;;;2.53;;
18286;SDS011;9269;50.838;12.094;2023-02-01T09:00:31;7.93;;;3.07;;
18286;SDS011;9269;50.838;12.094;2023-02-01T09:03:00;14.90;;;3.07;;
18286;SDS011;9269;50.838;12.094;2023-02-01T09:05:28;5.77;;;2.80;;
18286;SDS011;9269;50.838;12.094;2023-02-01T09:08:14;5.00;;;2.10;;
18286;SDS011;9269;50.838;12.094;2023-02-01T09:10:44;4.93;;;2.87;;
18286;SDS011;9269;50.838;12.094;2023-02-01T09:13:13;11.07;;;3.00;;
18286;SDS011;9269;50.838;12.094;2023-02-01T09:15:41;10.13;;;3.90;;
18286;SDS011;9269;50.838;12.094;2023-02-01T09:18:10;7.13;;;3.33;;
18286;SDS011;9269;50.838;12.094;2023-02-01T09:20:39;4.80;;;2.90;;
18286;SDS011;9269;50.838;12.094;2023-02-01T09:23:07;3.90;;;2.87;;
18286;SDS011;9269;50.838;12.094;2023-02-01T09:25:37;4.23;;;2.80;;
18286;SDS011;9269;50.838;12.094;2023-02-01T09:28:07;8.67;;;3.57;;
18286;SDS011;9269;50.838;12.094;2023-02-01T09:30:36;8.27;;;3.47;;
18286;SDS011;9269;50.838;12.094;2023-02-01T09:33:06;6.33;;;2.87;;
18286;SDS011;9269;50.838;12.094;2023-02-01T09:35:34;6.70;;;3.43;;
18286;SDS011;9269;50.838;12.094;2023-02-01T09:38:02;8.03;;;3.53;;
18286;SDS011;9269;50.838;12.094;2023-02-01T09:40:33;6.37;;;3.00;;
18286;SDS011;9269;50.838;12.094;2023-02-01T09:43:12;7.50;;;3.03;;
18286;SDS011;9269;50.838;12.094;2023-02-01T09:45:50;8.03;;;3.30;;
18286;SDS011;9269;50.838;12.094;2023-02-01T09:48:24;4.83;;;2.80;;
18286;SDS011;9269;50.838;12.094;2023-02-01T09:50:59;6.00;;;3.37;;
18286;SDS011;9269;50.838;12.094;2023-02-01T09:53:32;6.53;;;2.90;;
18286;SDS011;9269;50.838;12.094;2023-02-01T09:56:02;5.50;;;2.70;;
18286;SDS011;9269;50.838;12.094;2023-02-01T09:58:36;6.10;;;2.70;;
18286;SDS011;9269;50.838;12.094;2023-02-01T10:01:10;4.77;;;2.70;;
18286;SDS011;9269;50.838;12.094;2023-02-01T10:03:43;3.63;;;1.83;;
18286;SDS011;9269;50.838;12.094;2023-02-01T10:09:14;9.47;;;5.50;;
18286;SDS011;9269;50.838;12.094;2023-02-01T10:12:02;6.37;;;3.30;;
18286;SDS011;9269;50.838;12.094;2023-02-01T10:14:48;5.57;;;2.30;;
18286;SDS011;9269;50.838;12.094;2023-02-01T10:17:29;7.33;;;2.77;;
18286;SDS011;9269;50.838;12.094;2023-02-01T10:20:12;4.73;;;2.30;;
18286;SDS011;9269;50.838;12.094;2023-02-01T10:22:48;3.73;;;2.07;;
18286;SDS011;9269;50.838;12.094;2023-02-01T10:25:43;6.57;;;2.73;;
18286;SDS011;9269;50.838;12.094;2023-02-01T10:28:20;2.50;;;2.00;;
18286;SDS011;9269;50.838;12.094;2023-02-01T10:30:54;5.03;;;2.47;;
18286;SDS011;9269;50.838;12.094;2023-02-01T10:33:26;4.87;;;2.20;;
18286;SDS011;9269;50.838;12.094;2023-02-01T10:35:58;6.13;;;2.40;;
18286;SDS011;9269;50.838;12.094;2023-02-01T10:38:34;4.67;;;2.73;;
18286;SDS011;9269;50.838;12.094;2023-02-01T10:41:04;4.20;;;2.33;;
18286;SDS011;9269;50.838;12.094;2023-02-01T10:43:40;7.17;;;2.90;;
18286;SDS011;9269;50.838;12.094;2023-02-01T10:46:11;6.27;;;2.40;;
18286;SDS011;9269;50.838;12.094;2023-02-01T10:48:39;4.07;;;2.13;;
18286;SDS011;9269;50.838;12.094;2023-02-01T10:51:10;4.67;;;2.13;;
18286;SDS011;9269;50.838;12.094;2023-02-01T10:53:44;4.63;;;2.40;;
18286;SDS011;9269;50.838;12.094;2023-02-01T10:56:21;5.20;;;2.00;;
18286;SDS011;9269;50.838;12.094;2023-02-01T10:58:51;6.23;;;2.57;;
18286;SDS011;9269;50.838;12.094;2023-02-01T11:01:33;7.57;;;3.30;;
18286;SDS011;9269;50.838;12.094;2023-02-01T11:04:06;5.53;;;2.70;;
18286;SDS011;9269;50.838;12.094;2023-02-01T11:06:40;6.30;;;2.83;;
18286;SDS011;9269;50.838;12.094;2023-02-01T11:09:10;4.40;;;2.60;;
18286;SDS011;9269;50.838;12.094;2023-02-01T11:11:55;5.37;;;2.40;;
18286;SDS011;9269;50.838;12.094;2023-02-01T11:14:28;5.20;;;2.37;;
18286;SDS011;9269;50.838;12.094;2023-02-01T11:17:12;7.47;;;2.40;;
18286;SDS011;9269;50.838;12.094;2023-02-01T11:19:56;4.20;;;2.50;;
18286;SDS011;9269;50.838;12.094;2023-02-01T11:22:26;5.13;;;2.40;;
18286;SDS011;9269;50.838;12.094;2023-02-01T11:24:56;6.57;;;4.13;;
18286;SDS011;9269;50.838;12.094;2023-02-01T11:27:26;10.93;;;6.37;;
18286;SDS011;9269;50.838;12.094;2023-02-01T11:29:58;5.33;;;2.80;;
18286;SDS011;9269;50.838;12.094;2023-02-01T11:32:30;4.97;;;2.90;;
18286;SDS011;9269;50.838;12.094;2023-02-01T11:34:59;4.30;;;2.60;;
18286;SDS011;9269;50.838;12.094;2023-02-01T11:37:31;5.17;;;2.20;;
18286;SDS011;9269;50.838;12.094;2023-02-01T11:40:08;5.10;;;2.40;;
18286;SDS011;9269;50.838;12.094;2023-02-01T11:42:54;4.23;;;1.97;;
18286;SDS011;9269;50.838;12.094;2023-02-01T11:45:25;5.80;;;2.50;;
18286;SDS011;9269;50.838;12.094;2023-02-01T11:47:57;3.47;;;1.90;;
18286;SDS011;9269;50.838;12.094;2023-02-01T11:50:29;5.70;;;2.60;;
18286;SDS011;9269;50.838;12.094;2023-02-01T11:53:16;4.63;;;2.50;;
18286;SDS011;9269;50.838;12.094;2023-02-01T11:55:56;4.67;;;2.53;;
18286;SDS011;9269;50.838;12.094;2023-02-01T11:58:36;6.47;;;2.57;;
18286;SDS011;9269;50.838;12.094;2023-02-01T12:01:30;6.07;;;2.37;;
18286;SDS011;9269;50.838;12.094;2023-02-01T12:07:17;5.27;;;2.00;;
18286;SDS011;9269;50.838;12.094;2023-02-01T12:09:55;5.33;;;2.30;;
18286;SDS011;9269;50.838;12.094;2023-02-01T12:12:37;3.83;;;2.27;;
18286;SDS011;9269;50.838;12.094;2023-02-01T12:15:17;5.33;;;1.90;;
18286;SDS011;9269;50.838;12.094;2023-02-01T12:18:01;3.63;;;1.53;;
18286;SDS011;9269;50.838;12.094;2023-02-01T12:20:57;7.33;;;2.70;;
18286;SDS011;9269;50.838;12.094;2023-02-01T12:23:43;4.83;;;2.20;;
18286;SDS011;9269;50.838;12.094;2023-02-01T12:26:35;4.40;;;2.33;;
18286;SDS011;9269;50.838;12.094;2023-02-01T12:32:11;3.87;;;2.07;;
18286;SDS011;9269;50.838;12.094;2023-02-01T12:34:59;7.50;;;2.70;;
18286;SDS011;9269;50.838;12.094;2023-02-01T12:37:47;6.83;;;3.13;;
18286;SDS011;9269;50.838;12.094;2023-02-01T12:40:28;3.50;;;2.60;;
18286;SDS011;9269;50.838;12.094;2023-02-01T12:43:09;4.63;;;2.70;;
18286;SDS011;9269;50.838;12.094;2023-02-01T12:45:45;3.80;;;2.20;;
18286;SDS011;9269;50.838;12.094;2023-02-01T12:48:25;4.50;;;2.47;;
18286;SDS011;9269;50.838;12.094;2023-02-01T12:50:59;4.97;;;2.50;;
18286;SDS011;9269;50.838;12.094;2023-02-01T12:53:35;3.87;;;2.43;;
18286;SDS011;9269;50.838;12.094;2023-02-01T12:56:15;5.07;;;2.43;;
18286;SDS011;9269;50.838;12.094;2023-02-01T12:58:50;2.23;;;2.00;;
18286;SDS011;9269;50.838;12.094;2023-02-01T13:01:22;4.50;;;2.47;;
18286;SDS011;9269;50.838;12.094;2023-02-01T13:03:59;5.93;;;2.77;;
18286;SDS011;9269;50.838;12.094;2023-02-01T13:06:37;4.13;;;2.50;;
18286;SDS011;9269;50.838;12.094;2023-02-01T13:09:14;6.00;;;2.90;;
18286;SDS011;9269;50.838;12.094;2023-02-01T13:11:48;2.97;;;1.57;;
18286;SDS011;9269;50.838;12.094;2023-02-01T13:14:25;5.43;;;2.80;;
18286;SDS011;9269;50.838;12.094;2023-02-01T13:16:58;5.93;;;2.90;;
18286;SDS011;9269;50.838;12.094;2023-02-01T13:19:39;5.33;;;3.03;;
18286;SDS011;9269;50.838;12.094;2023-02-01T13:22:13;6.30;;;2.83;;
18286;SDS011;9269;50.838;12.094;2023-02-01T13:24:49;5.83;;;3.00;;
18286;SDS011;9269;50.838;12.094;2023-02-01T13:27:20;8.27;;;3.57;;
18286;SDS011;9269;50.838;12.094;2023-02-01T13:29:52;4.80;;;2.60;;
18286;SDS011;9269;50.838;12.094;2023-02-01T13:32:39;6.57;;;2.97;;
18286;SDS011;9269;50.838;12.094;2023-02-01T13:41:52;5.97;;;3.03;;
18286;SDS011;9269;50.838;12.094;2023-02-01T13:44:26;6.90;;;2.97;;
18286;SDS011;9269;50.838;12.094;2023-02-01T13:46:59;3.30;;;2.40;;
18286;SDS011;9269;50.838;12.094;2023-02-01T13:49:31;5.03;;;2.87;;
18286;SDS011;9269;50.838;12.094;2023-02-01T13:52:05;4.40;;;2.60;;
18286;SDS011;9269;50.838;12.094;2023-02-01T13:54:45;8.07;;;2.60;;
18286;SDS011;9269;50.838;12.094;2023-02-01T14:00:08;3.90;;;1.80;;
18286;SDS011;9269;50.838;12.094;2023-02-01T14:05:59;7.07;;;3.13;;
18286;SDS011;9269;50.838;12.094;2023-02-01T14:08:38;5.77;;;2.50;;
18286;SDS011;9269;50.838;12.094;2023-02-01T14:23:11;5.53;;;2.87;;
18286;SDS011;9269;50.838;12.094;2023-02-01T14:25:57;4.93;;;2.70;;
18286;SDS011;9269;50.838;12.094;2023-02-01T14:28:39;5.03;;;2.60;;
18286;SDS011;9269;50.838;12.094;2023-02-01T14:34:11;6.80;;;3.17;;
18286;SDS011;9269;50.838;12.094;2023-02-01T14:36:44;3.93;;;2.80;;
18286;SDS011;9269;50.838;12.094;2023-02-01T14:39:20;6.67;;;3.00;;
18286;SDS011;9269;50.838;12.094;2023-02-01T14:41:53;6.33;;;3.13;;
18286;SDS011;9269;50.838;12.094;2023-02-01T14:44:30;5.90;;;2.77;;
18286;SDS011;9269;50.838;12.094;2023-02-01T14:47:06;4.57;;;2.93;;
18286;SDS011;9269;50.838;12.094;2023-02-01T14:49:37;6.10;;;2.87;;
18286;SDS011;9269;50.838;12.094;2023-02-01T14:52:15;5.20;;;2.80;;
18286;SDS011;9269;50.838;12.094;2023-02-01T14:54:48;7.47;;;3.23;;
18286;SDS011;9269;50.838;12.094;2023-02-01T14:57:21;5.70;;;3.03;;
18286;SDS011;9269;50.838;12.094;2023-02-01T14:59:54;5.33;;;2.63;;
18286;SDS011;9269;50.838;12.094;2023-02-01T15:02:36;4.90;;;2.60;;
18286;SDS011;9269;50.838;12.094;2023-02-01T15:05:19;5.80;;;2.50;;
18286;SDS011;9269;50.838;12.094;2023-02-01T15:07:52;6.57;;;2.97;;
18286;SDS011;9269;50.838;12.094;2023-02-01T15:10:21;4.50;;;2.70;;
18286;SDS011;9269;50.838;12.094;2023-02-01T15:12:51;6.40;;;3.23;;
18286;SDS011;9269;50.838;12.094;2023-02-01T15:15:20;4.33;;;2.33;;
18286;SDS011;9269;50.838;12.094;2023-02-01T15:17:54;5.17;;;2.50;;
18286;SDS011;9269;50.838;12.094;2023-02-01T15:20:24;8.40;;;2.70;;
18286;SDS011;9269;50.838;12.094;2023-02-01T15:22:55;6.97;;;2.77;;
18286;SDS011;9269;50.838;12.094;2023-02-01T15:25:26;4.93;;;2.60;;
18286;SDS011;9269;50.838;12.094;2023-02-01T15:27:56;3.93;;;2.20;;
18286;SDS011;9269;50.838;12.094;2023-02-01T15:30:26;4.80;;;2.93;;
18286;SDS011;9269;50.838;12.094;2023-02-01T15:33:13;8.13;;;2.80;;
18286;SDS011;9269;50.838;12.094;2023-02-01T15:35:46;3.73;;;2.37;;
18286;SDS011;9269;50.838;12.094;2023-02-01T15:38:31;5.87;;;2.30;;
18286;SDS011;9269;50.838;12.094;2023-02-01T15:41:03;5.50;;;2.93;;
18286;SDS011;9269;50.838;12.094;2023-02-01T15:43:36;5.50;;;2.70;;
18286;SDS011;9269;50.838;12.094;2023-02-01T15:46:08;5.07;;;2.10;;
18286;SDS011;9269;50.838;12.094;2023-02-01T15:48:41;3.90;;;1.93;;
18286;SDS011;9269;50.838;12.094;2023-02-01T15:51:16;4.33;;;2.37;;
18286;SDS011;9269;50.838;12.094;2023-02-01T15:53:48;6.03;;;2.23;;
18286;SDS011;9269;50.838;12.094;2023-02-01T15:56:25;4.90;;;2.40;;
18286;SDS011;9269;50.838;12.094;2023-02-01T15:58:57;2.97;;;1.90;;
18286;SDS011;9269;50.838;12.094;2023-02-01T16:01:28;4.87;;;1.70;;
18286;SDS011;9269;50.838;12.094;2023-02-01T16:04:16;3.57;;;2.10;;
18286;SDS011;9269;50.838;12.094;2023-02-01T16:06:48;5.13;;;2.43;;